Kugluktuk, Canada
Current Conditions -  °F | °C
As of 2:00 PM on Monday 24 Nov 2014 (Local Time) from CYCO Reporting Station
Few Clouds Few Clouds  
Wind Chill: -41°   Ceiling: Unl
Heat Index: -17°   Visibility: 15mi
Dew Point: -22°   Wind: 15mph
Humidity: 76%   Direction: 240°WSW
Pressure: 30.16"   Gusts: NA
Location:  67.83°N, 115.08°W
Report Text: CYCO 242100Z 24013KT 15SM FEW015 M27/M30 A3016 RMK ST1 SLP218
Loading
Personal Weather Stations






























Interactive Weather Map New forecast layout! Learn more

10-Day Weather Forecast

Advertisements
Track Severe Weather on mobile